createdAt,value
2022-10-05T00:00:22.703Z,8.45
2022-10-05T00:03:37.292Z,7.05
2022-10-05T00:06:46.014Z,7.00
2022-10-05T00:09:58.168Z,6.50
2022-10-05T00:13:14.598Z,6.05
2022-10-05T00:16:24.150Z,5.97
2022-10-05T00:19:35.523Z,6.00
2022-10-05T00:22:42.938Z,6.13
2022-10-05T00:25:50.998Z,5.78
2022-10-05T00:29:01.430Z,5.70
2022-10-05T00:32:08.959Z,5.68
2022-10-05T00:35:17.995Z,5.45
2022-10-05T00:38:25.904Z,4.75
2022-10-05T00:41:44.438Z,5.28
2022-10-05T00:45:00.353Z,4.88
2022-10-05T00:48:24.790Z,4.88
2022-10-05T00:51:34.792Z,5.03
2022-10-05T00:58:04.842Z,4.45
2022-10-05T01:01:18.547Z,3.72
2022-10-05T01:04:35.493Z,3.33
2022-10-05T01:07:51.161Z,3.25
2022-10-05T01:11:07.255Z,3.80
2022-10-05T01:14:21.892Z,3.45
2022-10-05T01:17:40.444Z,3.40
2022-10-05T01:20:57.903Z,2.88
2022-10-05T01:24:42.615Z,2.80
2022-10-05T01:28:05.251Z,2.90
2022-10-05T01:31:21.954Z,2.90
2022-10-05T01:34:39.093Z,2.88
2022-10-05T01:37:56.396Z,2.70
2022-10-05T01:41:15.909Z,2.38
2022-10-05T01:44:31.497Z,2.20
2022-10-05T01:47:47.640Z,2.30
2022-10-05T01:51:07.296Z,2.10
2022-10-05T01:54:26.028Z,2.00
2022-10-05T01:57:44.768Z,1.80
2022-10-05T02:01:00.445Z,2.17
2022-10-05T02:04:18.649Z,1.90
2022-10-05T02:07:43.343Z,1.80
2022-10-05T02:10:56.586Z,1.73
2022-10-05T02:14:11.267Z,1.75
2022-10-05T02:17:25.414Z,1.73
2022-10-05T02:20:36.577Z,1.75
2022-10-05T02:23:46.591Z,1.55
2022-10-05T02:30:06.038Z,1.33
2022-10-05T02:33:25.235Z,1.48
2022-10-05T02:36:38.530Z,1.50
2022-10-05T02:39:56.361Z,1.40
2022-10-05T02:43:14.011Z,1.25
2022-10-05T02:46:33.317Z,0.98
2022-10-05T02:49:49.755Z,0.95
2022-10-05T02:53:08.391Z,1.17
2022-10-05T02:56:24.615Z,1.20
2022-10-05T02:59:39.121Z,1.17
2022-10-05T03:02:50.765Z,1.10
2022-10-05T03:06:04.278Z,1.10
2022-10-05T03:09:13.627Z,0.98
2022-10-05T03:12:45.748Z,0.88
2022-10-05T03:16:18.824Z,1.13
2022-10-05T03:19:48.009Z,1.00
2022-10-05T03:23:02.801Z,1.00
2022-10-05T03:26:26.457Z,0.93
2022-10-05T03:29:43.575Z,1.00
2022-10-05T03:33:01.943Z,1.00
2022-10-05T03:36:18.312Z,1.00
2022-10-05T03:39:34.095Z,0.90
2022-10-05T03:42:55.835Z,1.08
2022-10-05T03:46:08.088Z,0.98
2022-10-05T03:49:23.382Z,0.90
2022-10-05T03:52:38.055Z,0.90
2022-10-05T03:55:53.592Z,0.77
2022-10-05T03:59:04.521Z,1.00
2022-10-05T04:02:21.626Z,1.02
2022-10-05T04:05:33.115Z,0.90
2022-10-05T04:08:48.001Z,0.82
2022-10-05T04:12:06.365Z,1.10
2022-10-05T04:15:22.408Z,0.90
2022-10-05T04:18:32.606Z,0.80
2022-10-05T04:21:43.834Z,0.80
2022-10-05T04:24:54.945Z,0.70
2022-10-05T04:28:13.008Z,0.65
2022-10-05T04:31:35.963Z,0.80
2022-10-05T04:34:56.447Z,0.70
2022-10-05T04:38:19.448Z,0.70
2022-10-05T04:41:42.553Z,0.80
2022-10-05T04:45:11.565Z,0.68
2022-10-05T04:48:59.549Z,0.63
2022-10-05T04:52:15.163Z,0.75
2022-10-05T04:55:33.648Z,0.60
2022-10-05T04:58:56.811Z,0.63
2022-10-05T05:02:20.284Z,0.80
2022-10-05T05:05:58.721Z,0.77
2022-10-05T05:09:25.728Z,0.65
2022-10-05T05:12:43.152Z,0.60
2022-10-05T05:15:57.163Z,0.63
2022-10-05T05:19:22.305Z,0.70
2022-10-05T05:22:40.339Z,0.70
2022-10-05T05:25:57.536Z,0.77
2022-10-05T05:29:17.366Z,0.80
2022-10-05T05:32:36.914Z,0.60
2022-10-05T05:36:23.604Z,0.70
2022-10-05T05:39:33.110Z,0.60
2022-10-05T05:42:47.194Z,0.60
2022-10-05T05:46:01.863Z,0.70
2022-10-05T05:49:16.698Z,0.68
2022-10-05T05:52:31.935Z,0.52
2022-10-05T05:55:44.244Z,0.52
2022-10-05T05:58:56.981Z,0.60
2022-10-05T06:02:13.711Z,0.70
2022-10-05T06:05:33.660Z,0.55
2022-10-05T06:08:48.096Z,0.50
2022-10-05T06:11:58.922Z,0.60
2022-10-05T06:15:17.052Z,0.57
2022-10-05T06:18:25.630Z,0.45
2022-10-05T06:21:40.774Z,0.60
2022-10-05T06:25:02.914Z,0.50
2022-10-05T06:28:14.027Z,0.60
2022-10-05T06:31:34.133Z,0.60
2022-10-05T06:34:54.400Z,0.50
2022-10-05T06:38:19.096Z,0.50
2022-10-05T06:41:44.350Z,0.40
2022-10-05T06:44:58.712Z,0.50
2022-10-05T06:48:15.028Z,0.40
2022-10-05T06:51:26.377Z,0.60
2022-10-05T06:54:55.477Z,0.63
2022-10-05T06:58:23.069Z,0.50
2022-10-05T07:01:44.178Z,0.40
2022-10-05T07:05:19.142Z,0.50
2022-10-05T07:08:36.935Z,0.50
2022-10-05T07:12:05.393Z,0.60
2022-10-05T07:15:39.608Z,0.63
2022-10-05T07:18:56.910Z,0.50
2022-10-05T07:22:22.795Z,0.60
2022-10-05T07:25:35.356Z,0.50
2022-10-05T07:28:50.496Z,0.55
2022-10-05T07:32:14.002Z,0.40
2022-10-05T07:35:43.835Z,0.40
2022-10-05T07:39:00.372Z,0.40
2022-10-05T07:42:19.184Z,0.50
2022-10-05T07:45:32.218Z,0.47
2022-10-05T07:48:58.630Z,0.52
2022-10-05T07:52:13.715Z,0.60
2022-10-05T07:55:23.525Z,0.45
2022-10-05T07:58:34.419Z,0.60
2022-10-05T08:01:47.707Z,0.60
2022-10-05T08:05:04.159Z,0.40
2022-10-05T08:08:28.968Z,0.40
2022-10-05T08:11:45.328Z,0.57
2022-10-05T08:14:59.270Z,0.50
2022-10-05T08:18:14.920Z,0.45
2022-10-05T08:21:31.084Z,0.45
2022-10-05T08:24:46.398Z,0.60
2022-10-05T08:28:00.207Z,0.52
2022-10-05T08:31:22.257Z,0.43
2022-10-05T08:34:34.131Z,0.40
2022-10-05T08:37:46.629Z,0.40
2022-10-05T08:41:36.009Z,0.45
2022-10-05T08:45:06.754Z,0.55
2022-10-05T08:48:46.371Z,0.50
2022-10-05T08:52:25.297Z,0.70
2022-10-05T08:55:46.910Z,0.43
2022-10-05T08:59:30.101Z,0.60
2022-10-05T09:02:53.135Z,0.80
2022-10-05T09:06:43.710Z,0.63
2022-10-05T09:10:31.571Z,0.70
2022-10-05T09:14:07.271Z,0.80
2022-10-05T09:17:46.175Z,0.88
2022-10-05T09:20:56.003Z,0.70
2022-10-05T09:24:29.725Z,0.80
2022-10-05T09:27:42.242Z,0.90
2022-10-05T09:31:02.303Z,0.95
2022-10-05T09:34:43.201Z,0.85
2022-10-05T09:38:23.589Z,0.80
2022-10-05T09:42:05.825Z,0.70
2022-10-05T09:45:45.097Z,0.88
2022-10-05T09:49:22.891Z,0.80
2022-10-05T09:52:56.149Z,0.80
2022-10-05T09:56:37.594Z,0.80
2022-10-05T10:00:29.863Z,0.90
2022-10-05T10:04:14.179Z,0.70
2022-10-05T10:07:38.447Z,0.75
2022-10-05T10:11:24.244Z,0.80
2022-10-05T10:15:10.428Z,0.90
2022-10-05T10:18:30.739Z,0.70
2022-10-05T10:22:21.092Z,0.88
2022-10-05T10:26:00.438Z,1.00
2022-10-05T10:29:30.114Z,0.73
2022-10-05T10:33:22.783Z,0.85
2022-10-05T10:36:51.573Z,1.00
2022-10-05T10:40:20.421Z,0.60
2022-10-05T10:43:50.477Z,0.80
2022-10-05T10:47:24.192Z,0.88
2022-10-05T10:51:04.289Z,0.70
2022-10-05T10:54:31.782Z,0.95
2022-10-05T10:57:57.447Z,0.70
2022-10-05T11:01:19.751Z,0.85
2022-10-05T11:05:08.470Z,0.70
2022-10-05T11:09:00.613Z,0.73
2022-10-05T11:12:58.329Z,0.60
2022-10-05T11:16:34.255Z,0.63
2022-10-05T11:20:03.705Z,1.05
2022-10-05T11:23:43.038Z,1.10
2022-10-05T11:27:09.116Z,1.40
2022-10-05T11:30:48.848Z,1.20
2022-10-05T11:34:35.202Z,1.00
2022-10-05T11:38:05.674Z,0.88
2022-10-05T11:41:43.132Z,1.00
2022-10-05T11:45:23.024Z,0.70
2022-10-05T11:48:44.605Z,0.80
2022-10-05T11:52:03.664Z,0.80
2022-10-05T11:55:26.230Z,0.80
2022-10-05T11:58:40.055Z,0.75
2022-10-05T12:01:57.131Z,0.70
2022-10-05T12:05:11.494Z,0.88
2022-10-05T12:08:37.336Z,0.90
2022-10-05T12:11:58.068Z,0.60
2022-10-05T12:15:15.786Z,0.63
2022-10-05T12:18:46.063Z,0.60
2022-10-05T12:22:01.890Z,0.70
2022-10-05T12:25:22.787Z,0.60
2022-10-05T12:28:36.531Z,0.57
2022-10-05T12:31:53.793Z,0.60
2022-10-05T12:35:11.923Z,0.60
2022-10-05T12:38:28.806Z,0.60
2022-10-05T12:41:39.252Z,0.70
2022-10-05T12:45:00.675Z,0.68
2022-10-05T12:48:26.680Z,0.60
2022-10-05T12:51:43.622Z,0.70
2022-10-05T12:54:58.013Z,0.80
2022-10-05T12:58:17.901Z,0.60
2022-10-05T13:04:47.161Z,0.65
2022-10-05T13:08:10.679Z,0.50
2022-10-05T13:11:25.223Z,0.70
2022-10-05T13:14:53.973Z,0.70
2022-10-05T13:18:12.250Z,0.50
2022-10-05T13:21:25.362Z,0.60
2022-10-05T13:24:41.521Z,0.60
2022-10-05T13:27:55.475Z,0.60
2022-10-05T13:31:08.766Z,0.60
2022-10-05T13:34:25.756Z,0.75
2022-10-05T13:37:40.619Z,0.70
2022-10-05T13:40:58.290Z,0.80
2022-10-05T13:44:17.326Z,0.80
2022-10-05T13:47:33.556Z,0.60
2022-10-05T13:50:48.149Z,0.90
2022-10-05T13:54:05.059Z,1.00
2022-10-05T13:57:30.160Z,0.85
2022-10-05T14:00:46.815Z,0.63
2022-10-05T14:04:20.015Z,0.70
2022-10-05T14:07:34.493Z,0.77
2022-10-05T14:10:44.227Z,0.60
2022-10-05T14:13:55.002Z,0.50
2022-10-05T14:17:04.474Z,0.50
2022-10-05T14:20:26.076Z,0.55
2022-10-05T14:23:34.330Z,0.68
2022-10-05T14:26:41.743Z,0.60
2022-10-05T14:30:00.752Z,0.70
2022-10-05T14:33:19.171Z,0.60
2022-10-05T14:36:40.372Z,0.60
2022-10-05T14:39:50.169Z,0.50
2022-10-05T14:42:58.221Z,0.60
2022-10-05T14:46:28.058Z,0.40
2022-10-05T14:49:38.536Z,0.60
2022-10-05T14:52:51.719Z,0.40
2022-10-05T14:56:24.976Z,0.50
2022-10-05T14:59:46.136Z,0.50
2022-10-05T15:03:11.454Z,0.50
2022-10-05T15:06:27.274Z,0.50
2022-10-05T15:09:54.137Z,0.40
2022-10-05T15:13:16.306Z,0.50
2022-10-05T15:16:28.577Z,0.50
2022-10-05T15:19:51.220Z,0.40
2022-10-05T15:23:09.203Z,0.60
2022-10-05T15:26:33.485Z,0.50
2022-10-05T15:30:04.363Z,0.35
2022-10-05T15:33:18.507Z,0.50
2022-10-05T15:36:36.611Z,0.30
2022-10-05T15:39:49.299Z,0.40
2022-10-05T15:43:04.713Z,0.47
2022-10-05T15:46:19.211Z,0.22
2022-10-05T15:49:38.950Z,0.32
2022-10-05T15:52:54.631Z,0.30
2022-10-05T15:56:05.850Z,0.25
2022-10-05T15:59:23.374Z,0.38
2022-10-05T16:02:36.899Z,0.35
2022-10-05T16:06:06.787Z,0.40
2022-10-05T16:09:38.932Z,0.32
2022-10-05T16:13:02.210Z,0.40
2022-10-05T16:16:24.283Z,0.30
2022-10-05T16:19:41.919Z,0.30
2022-10-05T16:22:53.478Z,0.43
2022-10-05T16:26:19.862Z,0.30
2022-10-05T16:29:37.505Z,0.40
2022-10-05T16:32:51.135Z,0.30
2022-10-05T16:36:06.393Z,0.40
2022-10-05T16:39:21.327Z,0.30
2022-10-05T16:42:46.576Z,0.70
2022-10-05T16:46:06.871Z,0.45
2022-10-05T16:49:30.019Z,0.47
2022-10-05T16:52:43.261Z,0.40
2022-10-05T16:55:55.110Z,0.50
2022-10-05T16:59:34.622Z,0.30
2022-10-05T17:02:55.471Z,0.32
2022-10-05T17:06:15.263Z,0.45
2022-10-05T17:09:44.368Z,0.30
2022-10-05T17:13:03.360Z,0.50
2022-10-05T17:16:21.845Z,0.45
2022-10-05T17:19:42.169Z,0.47
2022-10-05T17:22:55.240Z,0.50
2022-10-05T17:26:19.367Z,0.70
2022-10-05T17:29:33.496Z,0.52
2022-10-05T17:33:00.425Z,0.40
2022-10-05T17:36:22.233Z,0.50
2022-10-05T17:39:52.764Z,0.50
2022-10-05T17:43:04.979Z,0.40
2022-10-05T17:46:14.145Z,0.30
2022-10-05T17:49:43.482Z,0.50
2022-10-05T17:53:39.525Z,0.60
2022-10-05T17:57:22.529Z,0.47
2022-10-05T18:00:43.854Z,0.50
2022-10-05T18:03:53.126Z,1.10
2022-10-05T18:07:06.601Z,1.20
2022-10-05T18:10:30.963Z,2.53
2022-10-05T18:13:46.705Z,3.80
2022-10-05T18:17:03.234Z,7.47
2022-10-05T18:20:33.256Z,39.30
2022-10-05T18:27:03.781Z,138.20
2022-10-05T18:30:23.462Z,121.07
2022-10-05T18:33:44.042Z,119.03
2022-10-05T18:37:07.471Z,108.35
2022-10-05T18:40:34.810Z,98.53
2022-10-05T18:43:54.095Z,94.43
2022-10-05T18:47:09.357Z,86.10
2022-10-05T18:50:28.561Z,80.68
2022-10-05T18:53:44.978Z,80.17
2022-10-05T18:56:53.865Z,73.60
2022-10-05T19:00:10.288Z,70.40
2022-10-05T19:03:26.056Z,66.97
2022-10-05T19:06:36.251Z,64.40
2022-10-05T19:09:59.405Z,60.03
2022-10-05T19:13:21.210Z,60.10
2022-10-05T19:16:45.126Z,57.40
2022-10-05T19:20:13.256Z,54.75
2022-10-05T19:23:35.643Z,52.70
2022-10-05T19:26:55.867Z,50.30
2022-10-05T19:30:18.827Z,48.88
2022-10-05T19:33:54.521Z,43.20
2022-10-05T19:37:09.183Z,41.22
2022-10-05T19:40:24.826Z,38.70
2022-10-05T19:44:07.080Z,39.10
2022-10-05T19:47:28.600Z,36.13
2022-10-05T19:50:43.876Z,35.83
2022-10-05T19:53:56.265Z,36.17
2022-10-05T19:57:04.524Z,32.35
2022-10-05T20:00:25.177Z,31.25
2022-10-05T20:03:35.753Z,29.55
2022-10-05T20:07:17.151Z,29.42
2022-10-05T20:10:31.235Z,28.48
2022-10-05T20:13:40.241Z,28.42
2022-10-05T20:17:05.947Z,25.90
2022-10-05T20:20:34.817Z,32.05
2022-10-05T20:23:45.278Z,63.63
2022-10-05T20:27:19.318Z,67.70
2022-10-05T20:30:28.566Z,72.82
2022-10-05T20:33:36.885Z,62.00
2022-10-05T20:36:44.876Z,58.53
2022-10-05T20:39:56.388Z,52.20
2022-10-05T20:43:03.757Z,52.30
2022-10-05T20:46:11.035Z,50.03
2022-10-05T20:49:47.691Z,47.00
2022-10-05T20:52:55.064Z,44.85
2022-10-05T20:56:05.575Z,41.10
2022-10-05T20:59:13.004Z,38.65
2022-10-05T21:02:23.407Z,37.42
2022-10-05T21:05:31.404Z,34.28
2022-10-05T21:08:39.275Z,32.90
2022-10-05T21:11:53.083Z,31.65
2022-10-05T21:15:00.596Z,29.80
2022-10-05T21:18:09.895Z,30.83
2022-10-05T21:21:17.706Z,27.55
2022-10-05T21:24:25.186Z,25.55
2022-10-05T21:27:38.419Z,26.10
2022-10-05T21:30:45.971Z,25.77
2022-10-05T21:33:53.407Z,24.40
2022-10-05T21:37:03.620Z,23.17
2022-10-05T21:40:11.831Z,21.88
2022-10-05T21:43:22.148Z,22.40
2022-10-05T21:46:29.866Z,21.40
2022-10-05T21:49:37.928Z,21.25
2022-10-05T21:52:45.782Z,19.60
2022-10-05T21:55:54.300Z,18.17
2022-10-05T21:59:05.956Z,19.05
2022-10-05T22:02:13.492Z,17.67
2022-10-05T22:05:21.127Z,15.93
2022-10-05T22:08:33.624Z,16.40
2022-10-05T22:11:41.694Z,15.35
2022-10-05T22:14:51.944Z,14.80
2022-10-05T22:17:59.896Z,14.10
2022-10-05T22:21:08.505Z,13.57
2022-10-05T22:24:15.921Z,13.95
2022-10-05T22:27:24.533Z,13.40
2022-10-05T22:30:34.753Z,12.20
2022-10-05T22:33:42.760Z,12.25
2022-10-05T22:36:50.802Z,12.52
2022-10-05T22:40:00.885Z,11.20
2022-10-05T22:43:08.284Z,11.85
2022-10-05T22:46:18.560Z,11.07
2022-10-05T22:49:25.912Z,9.77
2022-10-05T22:52:33.163Z,9.98
2022-10-05T22:55:40.573Z,9.20
2022-10-05T22:58:48.750Z,8.73
2022-10-05T23:01:59.093Z,8.73
2022-10-05T23:05:06.894Z,8.73
2022-10-05T23:08:14.430Z,8.50
2022-10-05T23:11:25.974Z,7.75
2022-10-05T23:14:33.637Z,7.32
2022-10-05T23:17:43.621Z,7.00
2022-10-05T23:24:03.284Z,6.82
2022-10-05T23:27:10.646Z,6.60
2022-10-05T23:30:18.194Z,6.55
2022-10-05T23:33:28.990Z,5.90
2022-10-05T23:36:36.426Z,5.93
2022-10-05T23:39:43.835Z,5.35
2022-10-05T23:42:51.497Z,5.90
2022-10-05T23:45:59.326Z,5.13
2022-10-05T23:49:09.496Z,5.00
2022-10-05T23:52:16.711Z,5.10
2022-10-05T23:55:23.954Z,4.93
2022-10-05T23:58:31.847Z,4.75
